Time;durP1;ratioP1;P1;durP2;ratioP2;P2;SDS_P1;SDS_P2;PMS_P1;PMS_P2;Temp;Humidity;BMP_temperature;BMP_pressure;BME280_temperature;BME280_humidity;BME280_pressure;Samples;Min_cycle;Max_cycle;Signal;HPM_P1;HPM_P2
2022/03/31 00:00:17;;;;;;;31.75;9.75;;;;;;;7.54;82.40;89909.72;4993063;28;20054;-64
2022/03/31 00:02:44;;;;;;;26.08;8.75;;;;;;;7.49;83.72;89909.88;4983869;28;20034;-61
2022/03/31 00:05:10;;;;;;;17.17;7.18;;;;;;;7.46;84.50;89906.00;4991691;28;20038;-61
2022/03/31 00:07:50;;;;;;;23.55;7.85;;;;;;;7.51;84.30;89913.75;4989955;28;20034;-61
2022/03/31 00:10:33;;;;;;;33.83;10.20;;;;;;;7.58;83.51;89917.81;4989658;28;20108;-60
2022/03/31 00:13:00;;;;;;;21.52;8.07;;;;;;;7.66;81.70;89919.66;4990179;28;20419;-62
2022/03/31 00:15:27;;;;;;;17.77;7.40;;;;;;;7.80;80.03;89914.94;4992342;28;20034;-60
2022/03/31 00:17:54;;;;;;;18.23;5.93;;;;;;;7.96;78.93;89918.63;4991235;28;20034;-61
2022/03/31 00:20:20;;;;;;;19.52;7.90;;;;;;;7.95;78.78;89929.53;4992118;28;20106;-61
2022/03/31 00:22:45;;;;;;;19.00;7.88;;;;;;;8.02;78.86;89937.75;4992102;28;20110;-62
2022/03/31 00:25:11;;;;;;;20.27;7.05;;;;;;;7.85;79.90;89914.75;4991983;28;20030;-62
2022/03/31 00:27:38;;;;;;;18.85;7.72;;;;;;;7.88;80.06;89930.00;4992150;28;20539;-62
2022/03/31 00:30:06;;;;;;;23.58;7.95;;;;;;;7.86;80.21;89936.72;4993162;28;20453;-61
2022/03/31 00:32:33;;;;;;;22.40;7.70;;;;;;;7.86;80.19;89937.50;4993436;28;20483;-61
2022/03/31 00:34:58;;;;;;;20.98;7.38;;;;;;;8.00;79.84;89955.84;4993526;28;20459;-61
2022/03/31 00:37:24;;;;;;;16.48;6.93;;;;;;;8.05;79.01;89937.94;4991983;28;20131;-61
2022/03/31 00:39:50;;;;;;;25.58;7.18;;;;;;;8.05;79.29;89937.16;4993247;28;20038;-62
2022/03/31 00:42:16;;;;;;;21.55;7.50;;;;;;;8.17;79.20;89941.75;4992715;28;20042;-63
2022/03/31 00:44:42;;;;;;;20.83;7.60;;;;;;;8.19;78.56;89942.22;4991676;28;20031;-62
2022/03/31 00:47:08;;;;;;;23.73;8.52;;;;;;;8.09;79.26;89933.56;4991670;28;20036;-62
2022/03/31 00:49:34;;;;;;;19.85;7.50;;;;;;;8.37;78.21;89935.81;4991608;28;20127;-61
2022/03/31 00:52:00;;;;;;;22.90;8.02;;;;;;;8.39;77.49;89926.44;4991298;28;20412;-62
2022/03/31 00:54:27;;;;;;;20.13;7.32;;;;;;;8.32;76.74;89909.44;4991512;28;20046;-63
2022/03/31 00:56:53;;;;;;;16.75;7.05;;;;;;;8.59;75.60;89913.56;4991484;28;20523;-62
2022/03/31 00:59:19;;;;;;;36.40;8.90;;;;;;;8.64;74.60;89914.13;4991386;28;20049;-62
2022/03/31 01:01:47;;;;;;;24.25;8.07;;;;;;;8.79;73.93;89912.03;4992061;28;20050;-62
2022/03/31 01:04:13;;;;;;;19.83;7.45;;;;;;;8.83;73.52;89918.22;4991445;28;20124;-61
2022/03/31 01:06:40;;;;;;;26.77;7.03;;;;;;;8.88;72.75;89920.72;4992546;28;20404;-62
2022/03/31 01:09:06;;;;;;;17.60;6.80;;;;;;;8.93;73.04;89907.25;4991236;28;20038;-62
2022/03/31 01:11:32;;;;;;;18.65;5.72;;;;;;;8.82;72.76;89880.31;4991801;28;20050;-61
2022/03/31 01:13:58;;;;;;;17.20;5.65;;;;;;;8.75;73.06;89906.59;4992584;28;20081;-61
2022/03/31 01:16:24;;;;;;;19.40;6.30;;;;;;;8.83;72.26;89908.38;4992504;28;20042;-61
2022/03/31 01:18:51;;;;;;;14.32;5.05;;;;;;;8.93;72.42;89915.97;4992446;28;20034;-61
2022/03/31 01:21:17;;;;;;;23.15;6.32;;;;;;;8.95;73.02;89903.16;4992690;28;20042;-61
2022/03/31 01:23:44;;;;;;;16.70;5.78;;;;;;;8.84;72.87;89899.38;4992315;28;20090;-61
2022/03/31 01:26:10;;;;;;;19.48;5.50;;;;;;;8.83;73.68;89902.31;4992404;28;20049;-61
2022/03/31 01:28:41;;;;;;;20.95;6.22;;;;;;;8.75;74.57;89898.63;4992347;28;20042;-61
2022/03/31 01:31:07;;;;;;;23.05;6.47;;;;;;;8.89;74.67;89898.38;4992238;28;20042;-61
2022/03/31 01:33:33;;;;;;;19.27;6.65;;;;;;;8.78;75.05;89887.38;4991521;28;20415;-61
2022/03/31 01:35:59;;;;;;;20.58;5.95;;;;;;;8.62;75.53;89867.84;4992226;28;20046;-61
2022/03/31 01:38:25;;;;;;;16.95;6.70;;;;;;;8.61;76.88;89879.53;4992143;28;20038;-62
2022/03/31 01:40:51;;;;;;;17.70;6.10;;;;;;;8.68;76.89;89885.13;4992125;28;20077;-62
2022/03/31 01:43:17;;;;;;;23.25;7.97;;;;;;;8.79;76.48;89882.84;4991942;28;20093;-62
2022/03/31 01:45:43;;;;;;;18.95;7.47;;;;;;;8.75;76.17;89881.94;4992373;28;20057;-62
2022/03/31 01:48:08;;;;;;;15.45;6.13;;;;;;;8.79;76.02;89882.84;4991970;28;20714;-62
2022/03/31 01:50:34;;;;;;;15.68;6.07;;;;;;;8.83;76.29;89875.78;4991999;28;20125;-62
2022/03/31 01:53:00;;;;;;;18.20;6.07;;;;;;;8.79;76.30;89858.97;4991843;28;20031;-62
2022/03/31 01:55:25;;;;;;;22.38;7.35;;;;;;;8.80;77.61;89861.31;4992013;28;20045;-61
2022/03/31 01:57:51;;;;;;;23.08;6.85;;;;;;;8.80;77.29;89871.91;4991964;28;20455;-61
2022/03/31 02:00:16;;;;;;;21.02;7.43;;;;;;;8.77;77.14;89855.88;4991961;28;20053;-61
2022/03/31 02:02:43;;;;;;;23.05;6.75;;;;;;;8.77;77.45;89874.44;4991788;28;20487;-61
2022/03/31 02:05:09;;;;;;;19.92;6.25;;;;;;;8.83;77.53;89863.31;4991870;28;20492;-61
2022/03/31 02:07:39;;;;;;;20.00;7.43;;;;;;;8.80;77.80;89871.91;4992135;28;20073;-62
2022/03/31 02:10:08;;;;;;;33.50;8.27;;;;;;;8.76;78.36;89859.63;4991713;28;20054;-62
2022/03/31 02:12:34;;;;;;;25.98;8.23;;;;;;;8.81;78.70;89860.22;4991534;28;20035;-62
2022/03/31 02:15:04;;;;;;;27.98;10.00;;;;;;;8.91;78.56;89861.72;4992050;28;20117;-62
2022/03/31 02:17:30;;;;;;;25.88;9.07;;;;;;;8.76;79.33;89854.34;4991712;28;20030;-61
2022/03/31 02:19:56;;;;;;;26.25;10.90;;;;;;;8.74;79.55;89843.28;4991738;28;20531;-61
2022/03/31 02:22:22;;;;;;;43.88;16.20;;;;;;;8.58;82.03;89848.38;4991613;28;20118;-61
2022/03/31 02:24:48;;;;;;;33.17;10.68;;;;;;;8.53;81.75;89844.06;4991669;28;20507;-62
2022/03/31 02:27:14;;;;;;;16.23;5.95;;;;;;;8.57;81.67;89847.59;4991673;28;20125;-62
2022/03/31 02:29:40;;;;;;;26.27;6.25;;;;;;;8.49;81.60;89837.81;4991644;28;20520;-61
2022/03/31 02:32:06;;;;;;;17.80;6.22;;;;;;;8.51;79.65;89838.28;4991479;28;20129;-61
2022/03/31 02:34:32;;;;;;;34.00;11.38;;;;;;;8.44;82.24;89842.53;4991459;28;20436;-61
2022/03/31 02:36:57;;;;;;;28.88;10.88;;;;;;;8.22;86.38;89835.66;4991533;28;20045;-61
2022/03/31 02:39:23;;;;;;;27.40;11.40;;;;;;;8.09;88.08;89824.94;4991798;28;20043;-61
2022/03/31 02:41:48;;;;;;;36.78;11.70;;;;;;;8.06;89.72;89833.53;4995022;28;20601;-62
2022/03/31 02:44:15;;;;;;;30.30;13.05;;;;;;;8.04;88.37;89841.00;4995375;28;20046;-62
2022/03/31 02:46:41;;;;;;;40.92;14.32;;;;;;;8.08;88.97;89831.34;4995288;28;20049;-61
2022/03/31 02:49:07;;;;;;;69.68;25.92;;;;;;;8.00;89.90;89824.22;4995266;28;20038;-61
2022/03/31 02:51:32;;;;;;;34.85;12.65;;;;;;;7.87;92.60;89829.72;4995020;28;20121;-61
2022/03/31 02:56:42;;;;;;;29.63;12.32;;;;;;;7.75;96.05;89847.06;4995005;28;20088;-61
2022/03/31 02:59:08;;;;;;;38.67;15.25;;;;;;;7.63;96.12;89843.53;4995012;28;20125;-61
2022/03/31 03:01:33;;;;;;;59.97;23.05;;;;;;;7.73;95.35;89833.38;4994915;28;20042;-61
2022/03/31 03:03:59;;;;;;;40.22;17.05;;;;;;;7.90;93.68;89835.19;4994923;28;20049;-61
2022/03/31 03:06:25;;;;;;;43.33;16.75;;;;;;;7.85;92.77;89816.81;4995098;28;20053;-61
2022/03/31 03:12:19;;;;;;;37.83;15.68;;;;;;;8.03;90.50;89836.03;4975265;28;20073;-60
2022/03/31 03:14:45;;;;;;;39.72;13.80;;;;;;;8.00;90.54;89834.03;4995069;28;20058;-60
2022/03/31 03:17:11;;;;;;;36.17;12.55;;;;;;;8.05;90.20;89826.69;4995043;28;20125;-60
2022/03/31 03:19:36;;;;;;;28.23;11.52;;;;;;;8.10;90.19;89828.38;4995016;28;20039;-61
2022/03/31 03:22:02;;;;;;;24.73;10.65;;;;;;;8.20;89.98;89830.63;4994522;28;20092;-61
2022/03/31 03:24:27;;;;;;;26.42;9.60;;;;;;;8.23;89.65;89842.50;4994587;28;20030;-61
2022/03/31 03:26:53;;;;;;;30.90;10.15;;;;;;;8.31;88.97;89837.13;4994860;28;20109;-61
2022/03/31 03:29:18;;;;;;;39.35;11.15;;;;;;;8.29;89.20;89833.25;4994561;28;20114;-61
2022/03/31 03:31:44;;;;;;;46.00;13.88;;;;;;;8.21;89.60;89834.09;4994416;28;20045;-61
2022/03/31 03:34:09;;;;;;;46.17;13.60;;;;;;;8.11;90.48;89820.09;4994382;28;20038;-61
2022/03/31 03:36:35;;;;;;;50.65;13.32;;;;;;;8.14;91.69;89823.22;4994376;28;20042;-61
2022/03/31 03:39:01;;;;;;;46.00;14.18;;;;;;;8.04;92.44;89811.09;4994331;28;20097;-61
2022/03/31 03:41:26;;;;;;;48.08;14.27;;;;;;;8.06;92.94;89815.00;4994230;28;20046;-61
2022/03/31 03:43:52;;;;;;;44.10;13.35;;;;;;;8.13;93.07;89819.00;4994276;28;20100;-61
2022/03/31 03:46:17;;;;;;;40.58;14.18;;;;;;;8.09;95.30;89819.66;4994416;28;20042;-61
2022/03/31 03:48:43;;;;;;;39.35;13.07;;;;;;;8.25;92.34;89829.69;4994371;28;20088;-61
2022/03/31 03:51:10;;;;;;;134.52;20.27;;;;;;;8.32;89.81;89820.13;4993768;28;20050;-61
2022/03/31 03:53:35;;;;;;;84.68;17.33;;;;;;;8.32;90.64;89825.44;4994026;28;20042;-61
2022/03/31 03:56:01;;;;;;;65.95;15.15;;;;;;;8.34;90.82;89812.66;4994045;28;20045;-61
2022/03/31 03:58:26;;;;;;;54.65;13.40;;;;;;;8.20;93.07;89816.63;4994247;28;20080;-61
2022/03/31 04:00:53;;;;;;;34.78;12.25;;;;;;;8.32;92.51;89824.66;4993952;28;20061;-61
2022/03/31 04:03:18;;;;;;;42.38;13.52;;;;;;;8.22;92.71;89819.75;4993730;28;20042;-61
2022/03/31 04:05:44;;;;;;;37.40;13.73;;;;;;;8.24;92.94;89818.31;4993656;28;20046;-62
2022/03/31 04:08:09;;;;;;;38.42;12.40;;;;;;;8.23;93.61;89827.38;4993848;28;20038;-62
2022/03/31 04:10:35;;;;;;;32.35;13.52;;;;;;;8.21;93.86;89820.84;4993639;28;20493;-61
2022/03/31 04:13:00;;;;;;;39.35;12.95;;;;;;;8.18;96.11;89822.25;4993332;28;20054;-61
2022/03/31 04:15:26;;;;;;;34.00;13.30;;;;;;;8.25;98.30;89829.69;4993288;28;20034;-62
2022/03/31 04:17:52;;;;;;;48.80;15.20;;;;;;;8.26;98.00;89825.94;4993580;28;20415;-61
2022/03/31 04:20:17;;;;;;;46.90;15.90;;;;;;;8.24;99.78;89836.88;4993449;28;20488;-62
2022/03/31 04:22:42;;;;;;;43.17;15.35;;;;;;;8.28;99.36;89845.72;4993033;28;20431;-61
2022/03/31 04:25:11;;;;;;;61.60;19.52;;;;;;;8.26;99.60;89841.84;4993252;28;20042;-62
2022/03/31 04:27:37;;;;;;;65.28;19.58;;;;;;;8.24;98.55;89842.16;4993361;28;20038;-61
2022/03/31 04:30:05;;;;;;;59.10;17.25;;;;;;;8.25;99.26;89840.28;4993367;28;20046;-60
2022/03/31 04:32:30;;;;;;;43.20;16.60;;;;;;;8.24;96.70;89846.69;4993024;28;20562;-60
2022/03/31 04:34:56;;;;;;;71.40;26.40;;;;;;;8.23;96.92;89859.16;4993239;28;20043;-62
2022/03/31 04:37:22;;;;;;;51.95;21.73;;;;;;;8.39;94.93;89846.16;4993181;28;20050;-60
2022/03/31 04:39:47;;;;;;;65.28;24.38;;;;;;;8.47;92.82;89832.06;4993167;28;20050;-61
2022/03/31 04:42:12;;;;;;;57.53;21.27;;;;;;;8.40;94.18;89829.94;4993027;28;20513;-60
2022/03/31 04:44:38;;;;;;;51.28;14.95;;;;;;;8.45;96.63;89828.97;4992964;28;20038;-60
2022/03/31 04:47:05;;;;;;;65.82;19.67;;;;;;;8.53;94.66;89825.50;4993032;28;20527;-60
2022/03/31 04:49:31;;;;;;;63.10;18.50;;;;;;;8.68;93.75;89826.81;4993011;28;20042;-60
2022/03/31 04:51:56;;;;;;;62.05;19.77;;;;;;;8.75;94.06;89847.47;4993037;28;20038;-61
2022/03/31 04:54:22;;;;;;;61.38;18.92;;;;;;;8.91;92.29;89859.84;4992821;28;20074;-60
2022/03/31 04:56:47;;;;;;;78.40;19.73;;;;;;;8.94;92.32;89847.78;4991298;28;20042;-61
2022/03/31 04:59:13;;;;;;;92.65;21.25;;;;;;;9.02;91.84;89841.66;4992679;28;20103;-60
2022/03/31 05:01:38;;;;;;;77.63;19.15;;;;;;;9.14;93.08;89844.34;4992581;28;20143;-60
2022/03/31 05:04:04;;;;;;;84.90;19.48;;;;;;;9.25;93.58;89842.84;4992075;28;20050;-61
2022/03/31 05:06:30;;;;;;;112.28;43.30;;;;;;;9.34;93.40;89852.63;4992627;28;20058;-60
2022/03/31 05:08:55;;;;;;;105.47;26.35;;;;;;;9.25;91.59;89856.09;4992408;28;20038;-60
2022/03/31 05:11:21;;;;;;;100.07;25.58;;;;;;;9.34;91.92;89863.22;4991924;28;20488;-60
2022/03/31 05:13:46;;;;;;;100.53;30.00;;;;;;;9.47;90.30;89859.53;4992115;28;20050;-61
2022/03/31 05:16:12;;;;;;;86.38;25.73;;;;;;;9.44;90.08;89854.84;4992564;28;20038;-60
2022/03/31 05:18:38;;;;;;;133.55;37.55;;;;;;;9.49;88.75;89860.75;4991862;28;20046;-61
2022/03/31 05:21:03;;;;;;;102.15;35.53;;;;;;;9.71;85.48;89866.75;4992446;28;20038;-61
2022/03/31 05:23:29;;;;;;;131.38;61.70;;;;;;;9.84;84.83;89858.50;4992371;28;20532;-61
2022/03/31 05:25:54;;;;;;;148.68;70.57;;;;;;;9.82;85.17;89858.06;4992290;28;20046;-61
2022/03/31 05:28:21;;;;;;;86.72;30.88;;;;;;;9.82;83.37;89867.91;4992338;28;20030;-61
2022/03/31 05:30:46;;;;;;;94.80;32.25;;;;;;;9.95;83.72;89876.66;4992028;28;20413;-61
2022/03/31 05:33:12;;;;;;;100.95;29.33;;;;;;;10.16;82.84;89888.75;4992165;28;20038;-61
2022/03/31 05:35:37;;;;;;;77.18;29.95;;;;;;;10.07;83.55;89884.63;4992341;28;20534;-61
2022/03/31 05:38:03;;;;;;;111.70;36.03;;;;;;;10.13;82.73;89883.34;4992038;28;20041;-60
2022/03/31 05:40:29;;;;;;;118.57;34.38;;;;;;;10.20;82.80;89884.31;4992021;28;20133;-62
2022/03/31 05:42:57;;;;;;;73.28;26.40;;;;;;;10.22;83.77;89876.03;4980062;28;20054;-62
2022/03/31 05:45:25;;;;;;;166.00;79.68;;;;;;;10.33;86.85;89871.06;4972609;28;20420;-62
2022/03/31 05:47:51;;;;;;;87.85;23.15;;;;;;;10.30;86.70;89871.75;4972456;28;20043;-61
2022/03/31 05:50:17;;;;;;;80.85;19.90;;;;;;;10.27;91.98;89865.22;4972353;28;20066;-61
2022/03/31 05:52:43;;;;;;;89.07;20.95;;;;;;;10.49;90.32;89870.06;4971662;28;20493;-61
2022/03/31 05:55:14;;;;;;;75.63;23.02;;;;;;;10.37;87.56;89835.50;4972289;28;20069;-61
2022/03/31 05:57:40;;;;;;;65.93;25.83;;;;;;;10.70;86.33;89861.19;4971947;28;20051;-61
2022/03/31 06:00:09;;;;;;;75.40;24.05;;;;;;;10.76;82.78;89855.31;4972004;28;20046;-61
2022/03/31 06:02:34;;;;;;;43.67;15.13;;;;;;;10.64;81.90;89838.59;4972351;28;20043;-61
2022/03/31 06:05:00;;;;;;;33.22;11.80;;;;;;;10.69;82.83;89822.41;4971903;28;20428;-62
2022/03/31 06:07:25;;;;;;;30.65;10.63;;;;;;;10.87;82.38;89825.56;4971875;28;20039;-62
2022/03/31 06:09:51;;;;;;;27.08;9.57;;;;;;;11.12;83.39;89824.41;4972191;28;20067;-62
2022/03/31 06:12:16;;;;;;;28.00;9.85;;;;;;;11.24;78.47;89807.59;4971269;28;20401;-62
2022/03/31 06:14:41;;;;;;;29.02;9.93;;;;;;;11.65;75.28;89807.16;4971938;28;20516;-63
2022/03/31 06:17:08;;;;;;;26.77;8.77;;;;;;;11.58;75.27;89800.91;4975956;28;20043;-62
2022/03/31 06:19:34;;;;;;;31.83;8.73;;;;;;;11.50;75.54;89804.47;4976127;28;20039;-62
2022/03/31 06:22:00;;;;;;;29.10;8.32;;;;;;;11.77;74.09;89802.91;4975992;28;20051;-64
2022/03/31 06:24:25;;;;;;;35.85;10.23;;;;;;;12.14;74.72;89808.78;4975828;28;20053;-61
2022/03/31 06:26:51;;;;;;;41.53;12.55;;;;;;;12.19;74.13;89803.19;4975540;28;20034;-62
2022/03/31 06:29:16;;;;;;;36.17;9.70;;;;;;;12.24;71.62;89806.38;4976270;28;20130;-62
2022/03/31 06:31:42;;;;;;;26.98;9.32;;;;;;;12.49;69.42;89804.28;4975725;28;20490;-62
2022/03/31 06:34:08;;;;;;;52.63;9.57;;;;;;;12.97;67.60;89814.84;4975874;28;20054;-59
2022/03/31 06:36:33;;;;;;;29.50;8.35;;;;;;;13.52;65.31;89813.66;4975891;28;20045;-61
2022/03/31 06:38:59;;;;;;;55.00;16.67;;;;;;;12.69;69.84;89821.09;4975717;28;20038;-60
2022/03/31 06:41:25;;;;;;;79.97;15.15;;;;;;;11.85;73.80;89828.66;4975298;28;20078;-61
2022/03/31 06:43:51;;;;;;;121.70;21.30;;;;;;;12.04;73.33;89831.41;4975693;28;20061;-60
2022/03/31 06:46:16;;;;;;;58.85;14.07;;;;;;;11.68;76.43;89825.16;4975589;28;20039;-61
2022/03/31 06:48:46;;;;;;;64.75;17.05;;;;;;;11.78;77.54;89839.06;4975558;28;20507;-61
2022/03/31 06:51:13;;;;;;;147.13;19.63;;;;;;;11.54;78.80;89843.44;4975392;28;20512;-61
2022/03/31 06:53:40;;;;;;;30.08;12.65;;;;;;;10.99;80.81;89839.63;4975632;28;20050;-60
2022/03/31 06:56:08;;;;;;;56.03;16.52;;;;;;;10.76;83.66;89844.69;4975546;28;20089;-61
2022/03/31 06:58:33;;;;;;;51.38;14.65;;;;;;;10.73;87.56;89841.88;4975134;28;20049;-61
2022/03/31 07:01:00;;;;;;;47.55;15.18;;;;;;;10.99;88.90;89847.59;4975267;28;20046;-61
2022/03/31 07:03:26;;;;;;;72.63;12.77;;;;;;;11.26;87.74;89837.31;4974369;28;20043;-61
2022/03/31 07:05:53;;;;;;;85.03;26.15;;;;;;;12.64;78.46;89853.41;4975219;28;20472;-61
2022/03/31 07:08:18;;;;;;;89.05;16.67;;;;;;;12.43;78.74;89823.56;4975308;28;20512;-60
2022/03/31 07:10:44;;;;;;;60.60;9.82;;;;;;;12.52;78.26;89845.50;4975396;28;20046;-61
2022/03/31 07:13:10;;;;;;;39.08;8.60;;;;;;;12.24;79.81;89838.38;4974474;28;20146;-61
2022/03/31 07:15:35;;;;;;;38.03;8.57;;;;;;;12.01;80.92;89820.66;4975180;28;20117;-62
2022/03/31 07:18:05;;;;;;;33.40;7.63;;;;;;;11.97;81.15;89820.56;4974608;28;20046;-61
2022/03/31 07:20:31;;;;;;;57.30;11.43;;;;;;;11.96;81.42;89821.66;4975294;28;20031;-61
2022/03/31 07:22:57;;;;;;;39.80;10.90;;;;;;;12.20;79.80;89804.75;4974923;28;20066;-61
2022/03/31 07:25:23;;;;;;;96.22;30.88;;;;;;;12.79;77.13;89817.91;4974819;28;20066;-60
2022/03/31 07:27:50;;;;;;;69.72;24.58;;;;;;;15.13;69.74;89817.06;4974081;28;20085;-61
2022/03/31 07:30:17;;;;;;;51.00;21.33;;;;;;;15.82;64.14;89822.91;4974885;28;20556;-62
2022/03/31 07:33:09;;;;;;;54.65;16.40;;;;;;;16.02;61.28;89812.75;4981744;28;20041;-61
2022/03/31 07:35:39;;;;;;;41.88;16.55;;;;;;;15.17;64.19;89826.69;4989374;28;20058;-60
2022/03/31 07:38:08;;;;;;;36.33;14.23;;;;;;;14.27;67.54;89820.34;4994146;28;20527;-61
2022/03/31 07:40:36;;;;;;;35.13;11.50;;;;;;;15.19;64.55;89816.38;4994205;28;20069;-62
2022/03/31 07:43:02;;;;;;;50.15;14.63;;;;;;;15.71;62.44;89816.66;4992862;28;20484;-60
2022/03/31 07:45:28;;;;;;;177.15;24.25;;;;;;;16.55;60.20;89821.28;4992756;28;20465;-59
2022/03/31 07:47:55;;;;;;;35.55;13.60;;;;;;;16.94;57.83;89818.16;4991794;28;20492;-61
2022/03/31 07:50:22;;;;;;;42.03;19.60;;;;;;;16.51;58.73;89825.09;4993286;28;20035;-60
2022/03/31 07:52:48;;;;;;;18.75;5.10;;;;;;;16.47;59.70;89812.41;4992695;28;20417;-59
2022/03/31 07:55:16;;;;;;;67.47;18.60;;;;;;;16.46;59.16;89810.09;4993306;28;20038;-59
2022/03/31 07:57:42;;;;;;;35.97;15.85;;;;;;;16.30;59.35;89823.00;4992435;28;20050;-59
2022/03/31 08:00:11;;;;;;;94.97;21.05;;;;;;;17.49;55.30;89837.69;4992902;28;20074;-60
2022/03/31 08:02:39;;;;;;;59.30;20.40;;;;;;;17.36;56.80;89834.56;4992843;28;20492;-61
2022/03/31 08:05:05;;;;;;;61.58;15.73;;;;;;;18.49;53.12;89829.97;4993434;28;20034;-60
2022/03/31 08:07:30;;;;;;;36.35;13.20;;;;;;;18.82;55.04;89815.41;4986197;28;20484;-60
2022/03/31 08:09:55;;;;;;;38.10;11.25;;;;;;;19.67;51.46;89803.69;4989439;28;20420;-61
2022/03/31 08:12:21;;;;;;;92.20;12.18;;;;;;;18.96;52.94;89784.97;4992313;28;20054;-60
2022/03/31 08:14:46;;;;;;;22.58;7.00;;;;;;;19.38;51.51;89811.84;4993683;28;20074;-59
2022/03/31 08:17:12;;;;;;;32.65;9.57;;;;;;;18.88;51.34;89816.53;4992462;28;20533;-60
2022/03/31 08:19:37;;;;;;;20.92;5.07;;;;;;;18.17;52.82;89809.16;4993332;28;20046;-61
2022/03/31 08:22:04;;;;;;;24.67;5.57;;;;;;;17.99;53.97;89811.03;4993222;28;20041;-61
2022/03/31 08:24:34;;;;;;;22.63;4.22;;;;;;;18.15;53.68;89799.91;4992659;28;20042;-61
2022/03/31 08:26:59;;;;;;;16.20;4.10;;;;;;;18.51;52.71;89808.81;4984755;28;20149;-60
2022/03/31 08:29:25;;;;;;;42.70;10.13;;;;;;;18.69;52.94;89825.00;4973776;28;20186;-60
2022/03/31 08:31:52;;;;;;;26.77;5.32;;;;;;;18.03;54.79;89817.19;4973102;28;20034;-60
2022/03/31 08:34:17;;;;;;;38.08;13.68;;;;;;;18.43;54.73;89828.78;4978477;28;20481;-61
2022/03/31 08:36:43;;;;;;;41.67;13.40;;;;;;;17.90;55.09;89808.69;4991916;28;20038;-61
2022/03/31 08:39:08;;;;;;;36.35;5.13;;;;;;;17.69;54.18;89794.41;4990730;28;20042;-61
2022/03/31 08:41:36;;;;;;;115.32;21.42;;;;;;;17.29;56.79;89791.50;4992136;28;20145;-60
2022/03/31 08:44:02;;;;;;;46.15;13.10;;;;;;;17.27;58.54;89764.22;4992913;28;20109;-60
2022/03/31 08:46:31;;;;;;;94.00;21.40;;;;;;;18.00;57.15;89796.41;4992694;28;20100;-61
2022/03/31 08:48:57;;;;;;;35.33;6.15;;;;;;;18.04;54.75;89788.34;4992998;28;20112;-60
2022/03/31 08:51:23;;;;;;;23.92;4.15;;;;;;;18.64;52.72;89801.16;4992281;28;20025;-61
2022/03/31 08:53:48;;;;;;;23.02;4.03;;;;;;;18.44;52.48;89793.41;4992462;28;20026;-60
2022/03/31 08:56:15;;;;;;;24.85;4.90;;;;;;;18.59;52.97;89799.56;4992135;28;20026;-60
2022/03/31 08:58:43;;;;;;;22.15;4.20;;;;;;;18.84;52.44;89784.22;4992367;28;20493;-61
2022/03/31 09:01:11;;;;;;;47.83;5.32;;;;;;;18.53;52.91;89787.66;4984377;28;20035;-60
2022/03/31 09:03:38;;;;;;;26.58;5.00;;;;;;;18.29;53.95;89781.06;4970552;28;20051;-60
2022/03/31 09:06:04;;;;;;;18.83;3.70;;;;;;;18.65;53.41;89770.38;4972988;28;20052;-61
2022/03/31 09:08:30;;;;;;;32.10;3.55;;;;;;;19.14;51.35;89799.19;4978881;28;20487;-61
2022/03/31 09:11:07;;;;;;;70.65;5.50;;;;;;;18.66;52.12;89769.22;4972062;28;20054;-61
2022/03/31 09:13:40;;;;;;;24.15;3.47;;;;;;;18.60;52.10;89760.69;4972574;28;20058;-60
2022/03/31 09:16:11;;;;;;;74.53;6.82;;;;;;;18.70;52.08;89754.59;4972786;28;20027;-61
2022/03/31 09:18:38;;;;;;;30.00;3.67;;;;;;;19.12;50.83;89755.69;4980905;28;20468;-62
2022/03/31 09:21:06;;;;;;;20.85;3.65;;;;;;;19.15;51.38;89779.16;4990960;28;20030;-61
2022/03/31 09:23:42;;;;;;;26.83;3.20;;;;;;;19.10;51.84;89777.63;4991718;28;20031;-63
2022/03/31 09:26:14;;;;;;;36.95;5.32;;;;;;;18.94;52.18;89754.97;4990517;28;20116;-62
2022/03/31 09:28:41;;;;;;;21.48;4.40;;;;;;;19.56;50.88;89768.66;4989459;28;20030;-63
2022/03/31 09:31:10;;;;;;;25.50;4.57;;;;;;;18.84;51.26;89762.66;4991372;28;20030;-62
2022/03/31 09:33:41;;;;;;;36.15;6.03;;;;;;;18.84;51.28;89741.09;4990480;28;20030;-61
2022/03/31 09:36:12;;;;;;;24.17;5.80;;;;;;;18.90;51.68;89748.78;4979975;28;20471;-63
2022/03/31 09:38:39;;;;;;;38.00;5.38;;;;;;;18.92;51.11;89730.28;4989275;28;20409;-61
2022/03/31 09:41:17;;;;;;;37.78;4.72;;;;;;;18.83;51.49;89734.16;4991088;28;20038;-61
2022/03/31 09:43:44;;;;;;;16.40;4.30;;;;;;;19.23;51.03;89732.16;4990601;28;20488;-62
2022/03/31 09:46:19;;;;;;;43.55;6.13;;;;;;;19.09;51.12;89716.00;4990407;28;20034;-61
2022/03/31 09:48:45;;;;;;;21.08;4.53;;;;;;;18.97;51.16;89729.91;4990347;28;20057;-64
2022/03/31 09:51:11;;;;;;;41.17;5.18;;;;;;;19.06;50.40;89735.66;4990833;28;20117;-64
2022/03/31 09:53:37;;;;;;;53.03;6.55;;;;;;;19.00;50.77;89743.38;4991362;28;20177;-63
2022/03/31 09:56:03;;;;;;;30.70;4.97;;;;;;;19.48;50.02;89739.38;4990994;28;20027;-62
2022/03/31 09:58:33;;;;;;;29.23;5.45;;;;;;;19.79;49.11;89716.16;4991670;28;20034;-62
2022/03/31 10:00:59;;;;;;;28.50;5.53;;;;;;;19.98;48.33;89712.97;4991087;28;20057;-64
2022/03/31 10:03:25;;;;;;;27.95;3.90;;;;;;;20.04;47.93;89731.06;4991506;28;20027;-63
2022/03/31 10:05:52;;;;;;;29.70;4.60;;;;;;;19.69;48.68;89723.91;4991534;28;20177;-62
2022/03/31 10:08:18;;;;;;;26.05;3.80;;;;;;;19.51;48.51;89715.09;4991358;28;20030;-63
2022/03/31 10:10:46;;;;;;;24.60;5.15;;;;;;;19.79;48.05;89708.84;4991329;28;20087;-63
2022/03/31 10:13:22;;;;;;;41.47;5.72;;;;;;;19.95;47.94;89717.22;4990835;28;20061;-63
2022/03/31 10:15:55;;;;;;;30.55;4.63;;;;;;;20.32;47.49;89716.59;4991564;28;20066;-63
2022/03/31 10:18:21;;;;;;;24.90;5.35;;;;;;;20.69;46.71;89727.94;4990916;28;20117;-63
2022/03/31 10:20:56;;;;;;;31.08;6.38;;;;;;;20.91;46.54;89708.41;4991324;28;20118;-62
2022/03/31 10:26:06;;;;;;;29.25;5.35;;;;;;;20.49;46.75;89706.06;4990974;28;20377;-61
2022/03/31 10:28:31;;;;;;;27.13;4.75;;;;;;;20.34;46.90;89713.47;4991364;28;20030;-62
2022/03/31 10:31:01;;;;;;;26.95;5.65;;;;;;;20.84;45.93;89708.50;4991290;28;20030;-61
2022/03/31 10:33:33;;;;;;;40.30;6.22;;;;;;;20.11;47.29;89710.56;4991309;28;20489;-62
2022/03/31 10:36:16;;;;;;;33.45;4.68;;;;;;;20.02;47.17;89711.75;4991134;28;20480;-63
2022/03/31 10:38:53;;;;;;;23.50;4.25;;;;;;;19.47;48.17;89708.19;4991253;28;20077;-62
2022/03/31 10:41:19;;;;;;;21.27;4.80;;;;;;;19.47;48.62;89703.56;4990936;28;20046;-64
2022/03/31 10:43:48;;;;;;;33.50;5.32;;;;;;;18.95;49.51;89707.97;4991270;28;20035;-64
2022/03/31 10:46:18;;;;;;;24.70;4.97;;;;;;;18.91;49.55;89728.75;4991239;28;20037;-63
2022/03/31 10:48:55;;;;;;;29.33;5.32;;;;;;;18.53;50.77;89739.16;4991109;28;20034;-62
2022/03/31 10:51:35;;;;;;;36.38;5.60;;;;;;;17.90;52.51;89719.91;4990916;28;20500;-63
2022/03/31 10:54:01;;;;;;;22.15;4.53;;;;;;;17.63;53.73;89703.28;4990768;28;20531;-67
2022/03/31 10:56:29;;;;;;;18.77;4.07;;;;;;;17.52;54.51;89704.44;4991084;28;20445;-61
2022/03/31 10:58:58;;;;;;;14.60;3.88;;;;;;;17.47;55.21;89688.66;4991081;28;20038;-60
2022/03/31 11:01:28;;;;;;;19.55;4.35;;;;;;;17.76;54.38;89673.38;4992081;28;20440;-63
2022/03/31 11:04:00;;;;;;;18.83;3.55;;;;;;;17.82;53.56;89699.50;4994792;28;20057;-63
2022/03/31 11:06:25;;;;;;;25.98;3.80;;;;;;;18.16;53.01;89691.88;4994909;28;20030;-62
2022/03/31 11:08:51;;;;;;;17.02;4.53;;;;;;;18.32;53.01;89686.09;4994515;28;20049;-62
2022/03/31 11:11:25;;;;;;;17.02;3.55;;;;;;;18.37;53.06;89666.84;4994639;28;20041;-62
2022/03/31 11:13:52;;;;;;;24.45;4.65;;;;;;;18.47;53.00;89690.31;4994403;28;20042;-62
2022/03/31 11:16:19;;;;;;;23.35;4.47;;;;;;;18.50;53.37;89688.78;4994468;28;20036;-62
2022/03/31 11:18:55;;;;;;;24.08;4.25;;;;;;;18.34;54.09;89691.09;4994139;28;20042;-63
2022/03/31 11:21:22;;;;;;;24.67;6.93;;;;;;;18.44;53.64;89690.31;4994085;28;20034;-63
2022/03/31 11:23:49;;;;;;;19.63;5.50;;;;;;;18.57;52.81;89691.44;4994169;28;20041;-63
2022/03/31 11:26:28;;;;;;;15.05;3.28;;;;;;;18.48;52.24;89699.16;4994277;28;20498;-62
2022/03/31 11:28:54;;;;;;;8.63;2.33;;;;;;;18.01;52.53;89711.09;4994147;28;20049;-63
2022/03/31 11:31:20;;;;;;;10.65;2.10;;;;;;;17.59;52.82;89704.44;4993911;28;20511;-63